sensor_id;sensor_type;location;lat;lon;timestamp;temperature;humidity
64937;SHT30;51452;47.698;19.050;2023-11-19T00:01:49;4.61;66.92
64937;SHT30;51452;47.698;19.050;2023-11-19T00:04:17;4.49;67.53
64937;SHT30;51452;47.698;19.050;2023-11-19T00:06:43;4.45;67.81
64937;SHT30;51452;47.698;19.050;2023-11-19T00:09:08;4.42;67.99
64937;SHT30;51452;47.698;19.050;2023-11-19T00:11:34;4.36;67.83
64937;SHT30;51452;47.698;19.050;2023-11-19T00:14:03;4.33;68.31
64937;SHT30;51452;47.698;19.050;2023-11-19T00:16:29;4.30;68.38
64937;SHT30;51452;47.698;19.050;2023-11-19T00:18:57;4.23;68.42
64937;SHT30;51452;47.698;19.050;2023-11-19T00:21:22;4.16;68.80
64937;SHT30;51452;47.698;19.050;2023-11-19T00:23:48;4.10;69.02
64937;SHT30;51452;47.698;19.050;2023-11-19T00:26:16;4.09;69.14
64937;SHT30;51452;47.698;19.050;2023-11-19T00:28:41;4.03;69.56
64937;SHT30;51452;47.698;19.050;2023-11-19T00:31:08;4.03;69.43
64937;SHT30;51452;47.698;19.050;2023-11-19T00:33:36;3.92;69.45
64937;SHT30;51452;47.698;19.050;2023-11-19T00:36:03;3.87;69.85
64937;SHT30;51452;47.698;19.050;2023-11-19T00:38:28;3.82;70.31
64937;SHT30;51452;47.698;19.050;2023-11-19T00:40:54;3.84;70.36
64937;SHT30;51452;47.698;19.050;2023-11-19T00:43:19;3.82;70.48
64937;SHT30;51452;47.698;19.050;2023-11-19T00:45:47;3.78;70.32
64937;SHT30;51452;47.698;19.050;2023-11-19T00:48:15;3.79;70.37
64937;SHT30;51452;47.698;19.050;2023-11-19T00:50:41;3.70;70.90
64937;SHT30;51452;47.698;19.050;2023-11-19T00:53:09;3.67;70.97
64937;SHT30;51452;47.698;19.050;2023-11-19T00:55:35;3.63;71.22
64937;SHT30;51452;47.698;19.050;2023-11-19T00:58:00;3.60;71.29
64937;SHT30;51452;47.698;19.050;2023-11-19T01:00:26;3.58;71.26
64937;SHT30;51452;47.698;19.050;2023-11-19T01:02:52;3.56;71.45
64937;SHT30;51452;47.698;19.050;2023-11-19T01:05:18;3.57;71.61
64937;SHT30;51452;47.698;19.050;2023-11-19T01:07:47;3.56;71.41
64937;SHT30;51452;47.698;19.050;2023-11-19T01:10:15;3.56;71.35
64937;SHT30;51452;47.698;19.050;2023-11-19T01:12:44;3.63;71.17
64937;SHT30;51452;47.698;19.050;2023-11-19T01:15:13;3.64;71.16
64937;SHT30;51452;47.698;19.050;2023-11-19T01:17:47;3.67;70.91
64937;SHT30;51452;47.698;19.050;2023-11-19T01:20:20;3.66;70.68
64937;SHT30;51452;47.698;19.050;2023-11-19T01:22:50;3.60;70.80
64937;SHT30;51452;47.698;19.050;2023-11-19T01:25:18;3.60;70.63
64937;SHT30;51452;47.698;19.050;2023-11-19T01:27:43;3.58;70.71
64937;SHT30;51452;47.698;19.050;2023-11-19T01:30:09;3.60;70.72
64937;SHT30;51452;47.698;19.050;2023-11-19T01:32:38;3.57;70.55
64937;SHT30;51452;47.698;19.050;2023-11-19T01:35:03;3.36;71.27
64937;SHT30;51452;47.698;19.050;2023-11-19T01:37:29;3.48;71.21
64937;SHT30;51452;47.698;19.050;2023-11-19T01:39:56;3.50;71.07
64937;SHT30;51452;47.698;19.050;2023-11-19T01:42:22;3.50;70.93
64937;SHT30;51452;47.698;19.050;2023-11-19T01:45:00;3.41;71.21
64937;SHT30;51452;47.698;19.050;2023-11-19T01:47:26;3.50;71.11
64937;SHT30;51452;47.698;19.050;2023-11-19T01:49:53;3.40;71.51
64937;SHT30;51452;47.698;19.050;2023-11-19T01:52:19;3.37;71.48
64937;SHT30;51452;47.698;19.050;2023-11-19T01:54:45;3.46;70.67
64937;SHT30;51452;47.698;19.050;2023-11-19T01:57:11;3.37;70.89
64937;SHT30;51452;47.698;19.050;2023-11-19T01:59:37;3.51;70.57
64937;SHT30;51452;47.698;19.050;2023-11-19T02:02:04;3.43;70.48
64937;SHT30;51452;47.698;19.050;2023-11-19T02:04:31;3.37;70.66
64937;SHT30;51452;47.698;19.050;2023-11-19T02:06:58;3.17;71.12
64937;SHT30;51452;47.698;19.050;2023-11-19T02:09:24;3.16;71.13
64937;SHT30;51452;47.698;19.050;2023-11-19T02:11:49;3.27;70.87
64937;SHT30;51452;47.698;19.050;2023-11-19T02:14:17;3.36;70.58
64937;SHT30;51452;47.698;19.050;2023-11-19T02:16:43;3.41;70.33
64937;SHT30;51452;47.698;19.050;2023-11-19T02:19:08;3.44;70.19
64937;SHT30;51452;47.698;19.050;2023-11-19T02:21:40;3.46;70.33
64937;SHT30;51452;47.698;19.050;2023-11-19T02:24:08;3.44;70.37
64937;SHT30;51452;47.698;19.050;2023-11-19T02:29:16;3.27;70.70
64937;SHT30;51452;47.698;19.050;2023-11-19T02:31:42;3.20;71.00
64937;SHT30;51452;47.698;19.050;2023-11-19T02:34:10;3.00;71.27
64937;SHT30;51452;47.698;19.050;2023-11-19T02:36:36;2.91;71.67
64937;SHT30;51452;47.698;19.050;2023-11-19T02:39:01;2.84;72.14
64937;SHT30;51452;47.698;19.050;2023-11-19T02:41:27;2.79;72.26
64937;SHT30;51452;47.698;19.050;2023-11-19T02:43:52;2.78;72.27
64937;SHT30;51452;47.698;19.050;2023-11-19T02:46:19;2.79;72.34
64937;SHT30;51452;47.698;19.050;2023-11-19T02:48:44;2.79;72.49
64937;SHT30;51452;47.698;19.050;2023-11-19T02:51:11;2.84;72.71
64937;SHT30;51452;47.698;19.050;2023-11-19T02:53:37;2.91;72.44
64937;SHT30;51452;47.698;19.050;2023-11-19T02:56:03;2.97;72.24
64937;SHT30;51452;47.698;19.050;2023-11-19T02:58:42;3.07;71.95
64937;SHT30;51452;47.698;19.050;2023-11-19T03:01:10;3.13;71.82
64937;SHT30;51452;47.698;19.050;2023-11-19T03:03:44;3.16;72.01
64937;SHT30;51452;47.698;19.050;2023-11-19T03:06:17;3.22;72.11
64937;SHT30;51452;47.698;19.050;2023-11-19T03:08:43;3.28;71.92
64937;SHT30;51452;47.698;19.050;2023-11-19T03:11:09;3.30;71.73
64937;SHT30;51452;47.698;19.050;2023-11-19T03:13:34;3.23;71.08
64937;SHT30;51452;47.698;19.050;2023-11-19T03:15:59;3.27;71.23
64937;SHT30;51452;47.698;19.050;2023-11-19T03:18:25;3.27;71.35
64937;SHT30;51452;47.698;19.050;2023-11-19T03:20:50;3.37;71.61
64937;SHT30;51452;47.698;19.050;2023-11-19T03:23:19;3.36;71.74
64937;SHT30;51452;47.698;19.050;2023-11-19T03:25:45;3.31;71.75
64937;SHT30;51452;47.698;19.050;2023-11-19T03:28:10;3.22;71.84
64937;SHT30;51452;47.698;19.050;2023-11-19T03:30:37;3.20;72.02
64937;SHT30;51452;47.698;19.050;2023-11-19T03:33:03;3.12;72.10
64937;SHT30;51452;47.698;19.050;2023-11-19T03:35:29;3.06;72.51
64937;SHT30;51452;47.698;19.050;2023-11-19T03:37:55;3.23;72.50
64937;SHT30;51452;47.698;19.050;2023-11-19T03:40:21;3.26;72.47
64937;SHT30;51452;47.698;19.050;2023-11-19T03:42:47;3.28;72.33
64937;SHT30;51452;47.698;19.050;2023-11-19T03:45:18;3.28;72.29
64937;SHT30;51452;47.698;19.050;2023-11-19T03:47:44;3.27;72.27
64937;SHT30;51452;47.698;19.050;2023-11-19T03:50:09;3.40;71.99
64937;SHT30;51452;47.698;19.050;2023-11-19T03:52:35;3.46;72.11
64937;SHT30;51452;47.698;19.050;2023-11-19T03:55:10;3.51;71.97
64937;SHT30;51452;47.698;19.050;2023-11-19T03:57:38;3.48;72.09
64937;SHT30;51452;47.698;19.050;2023-11-19T04:00:04;3.50;72.08
64937;SHT30;51452;47.698;19.050;2023-11-19T04:02:36;3.44;72.16
64937;SHT30;51452;47.698;19.050;2023-11-19T04:05:02;3.46;72.24
64937;SHT30;51452;47.698;19.050;2023-11-19T04:07:32;3.43;72.32
64937;SHT30;51452;47.698;19.050;2023-11-19T04:09:57;3.41;72.23
64937;SHT30;51452;47.698;19.050;2023-11-19T04:12:23;3.40;72.10
64937;SHT30;51452;47.698;19.050;2023-11-19T04:14:48;3.36;72.14
64937;SHT30;51452;47.698;19.050;2023-11-19T04:17:19;3.24;72.54
64937;SHT30;51452;47.698;19.050;2023-11-19T04:19:48;3.24;72.59
64937;SHT30;51452;47.698;19.050;2023-11-19T04:22:14;3.16;72.68
64937;SHT30;51452;47.698;19.050;2023-11-19T04:24:42;3.19;72.77
64937;SHT30;51452;47.698;19.050;2023-11-19T04:27:09;3.20;72.30
64937;SHT30;51452;47.698;19.050;2023-11-19T04:29:34;3.26;72.28
64937;SHT30;51452;47.698;19.050;2023-11-19T04:32:00;3.26;72.27
64937;SHT30;51452;47.698;19.050;2023-11-19T04:34:26;3.22;72.06
64937;SHT30;51452;47.698;19.050;2023-11-19T04:36:51;3.17;72.07
64937;SHT30;51452;47.698;19.050;2023-11-19T04:39:17;3.15;72.35
64937;SHT30;51452;47.698;19.050;2023-11-19T04:41:49;3.13;72.23
64937;SHT30;51452;47.698;19.050;2023-11-19T04:44:18;3.06;72.44
64937;SHT30;51452;47.698;19.050;2023-11-19T04:46:44;3.02;72.77
64937;SHT30;51452;47.698;19.050;2023-11-19T04:49:11;3.09;72.61
64937;SHT30;51452;47.698;19.050;2023-11-19T04:51:42;3.10;72.46
64937;SHT30;51452;47.698;19.050;2023-11-19T04:54:10;3.06;72.77
64937;SHT30;51452;47.698;19.050;2023-11-19T04:56:36;3.09;72.90
64937;SHT30;51452;47.698;19.050;2023-11-19T04:59:03;3.12;73.27
64937;SHT30;51452;47.698;19.050;2023-11-19T05:01:32;3.16;73.22
64937;SHT30;51452;47.698;19.050;2023-11-19T05:03:58;3.26;73.10
64937;SHT30;51452;47.698;19.050;2023-11-19T05:06:28;3.24;73.05
64937;SHT30;51452;47.698;19.050;2023-11-19T05:08:55;3.12;73.71
64937;SHT30;51452;47.698;19.050;2023-11-19T05:11:21;3.24;73.57
64937;SHT30;51452;47.698;19.050;2023-11-19T05:13:46;3.33;73.22
64937;SHT30;51452;47.698;19.050;2023-11-19T05:16:12;3.40;73.03
64937;SHT30;51452;47.698;19.050;2023-11-19T05:18:40;3.48;72.94
64937;SHT30;51452;47.698;19.050;2023-11-19T05:21:05;3.51;73.00
64937;SHT30;51452;47.698;19.050;2023-11-19T05:23:33;3.48;73.28
64937;SHT30;51452;47.698;19.050;2023-11-19T05:26:03;3.50;73.24
64937;SHT30;51452;47.698;19.050;2023-11-19T05:28:31;3.51;73.36
64937;SHT30;51452;47.698;19.050;2023-11-19T05:30:58;3.50;73.45
64937;SHT30;51452;47.698;19.050;2023-11-19T05:33:24;3.46;73.62
64937;SHT30;51452;47.698;19.050;2023-11-19T05:35:49;3.44;73.55
64937;SHT30;51452;47.698;19.050;2023-11-19T05:38:15;3.44;73.69
64937;SHT30;51452;47.698;19.050;2023-11-19T05:40:41;3.47;73.66
64937;SHT30;51452;47.698;19.050;2023-11-19T05:43:09;3.44;73.71
64937;SHT30;51452;47.698;19.050;2023-11-19T05:45:35;3.37;73.73
64937;SHT30;51452;47.698;19.050;2023-11-19T05:48:01;3.36;73.76
64937;SHT30;51452;47.698;19.050;2023-11-19T05:50:28;3.33;73.79
64937;SHT30;51452;47.698;19.050;2023-11-19T05:52:53;3.37;73.76
64937;SHT30;51452;47.698;19.050;2023-11-19T05:55:19;3.38;73.80
64937;SHT30;51452;47.698;19.050;2023-11-19T05:57:44;3.40;73.69
64937;SHT30;51452;47.698;19.050;2023-11-19T06:00:10;3.38;73.63
64937;SHT30;51452;47.698;19.050;2023-11-19T06:02:38;3.40;73.72
64937;SHT30;51452;47.698;19.050;2023-11-19T06:05:04;3.43;73.91
64937;SHT30;51452;47.698;19.050;2023-11-19T06:07:31;3.43;73.86
64937;SHT30;51452;47.698;19.050;2023-11-19T06:09:57;3.44;73.78
64937;SHT30;51452;47.698;19.050;2023-11-19T06:12:22;3.37;74.04
64937;SHT30;51452;47.698;19.050;2023-11-19T06:14:48;3.46;73.96
64937;SHT30;51452;47.698;19.050;2023-11-19T06:17:13;3.48;73.91
64937;SHT30;51452;47.698;19.050;2023-11-19T06:19:41;3.53;74.13
64937;SHT30;51452;47.698;19.050;2023-11-19T06:22:07;3.53;73.85
64937;SHT30;51452;47.698;19.050;2023-11-19T06:24:32;3.57;73.60
64937;SHT30;51452;47.698;19.050;2023-11-19T06:26:58;3.53;73.59
64937;SHT30;51452;47.698;19.050;2023-11-19T06:29:24;3.60;73.57
64937;SHT30;51452;47.698;19.050;2023-11-19T06:31:50;3.66;73.39
64937;SHT30;51452;47.698;19.050;2023-11-19T06:34:24;3.63;73.59
64937;SHT30;51452;47.698;19.050;2023-11-19T06:36:49;3.68;73.56
64937;SHT30;51452;47.698;19.050;2023-11-19T06:39:15;3.73;73.17
64937;SHT30;51452;47.698;19.050;2023-11-19T06:41:47;3.70;73.56
64937;SHT30;51452;47.698;19.050;2023-11-19T06:44:13;3.79;73.59
64937;SHT30;51452;47.698;19.050;2023-11-19T06:46:51;3.75;73.59
64937;SHT30;51452;47.698;19.050;2023-11-19T06:49:44;3.70;73.26
64937;SHT30;51452;47.698;19.050;2023-11-19T06:52:16;3.89;73.53
64937;SHT30;51452;47.698;19.050;2023-11-19T06:54:44;4.03;72.99
64937;SHT30;51452;47.698;19.050;2023-11-19T06:57:15;4.12;72.54
64937;SHT30;51452;47.698;19.050;2023-11-19T06:59:42;4.23;72.16
64937;SHT30;51452;47.698;19.050;2023-11-19T07:02:10;4.19;72.32
64937;SHT30;51452;47.698;19.050;2023-11-19T07:04:35;4.09;72.63
64937;SHT30;51452;47.698;19.050;2023-11-19T07:07:03;4.03;72.62
64937;SHT30;51452;47.698;19.050;2023-11-19T07:09:29;4.13;72.77
64937;SHT30;51452;47.698;19.050;2023-11-19T07:11:54;4.26;72.60
64937;SHT30;51452;47.698;19.050;2023-11-19T07:14:20;4.25;72.83
64937;SHT30;51452;47.698;19.050;2023-11-19T07:16:46;4.19;72.83
64937;SHT30;51452;47.698;19.050;2023-11-19T07:19:12;4.15;73.28
64937;SHT30;51452;47.698;19.050;2023-11-19T07:21:41;4.13;72.88
64937;SHT30;51452;47.698;19.050;2023-11-19T07:24:09;4.35;72.78
64937;SHT30;51452;47.698;19.050;2023-11-19T07:26:35;4.49;72.38
64937;SHT30;51452;47.698;19.050;2023-11-19T07:29:02;4.52;71.87
64937;SHT30;51452;47.698;19.050;2023-11-19T07:31:38;4.49;72.36
64937;SHT30;51452;47.698;19.050;2023-11-19T07:34:06;4.46;72.20
64937;SHT30;51452;47.698;19.050;2023-11-19T07:36:34;4.52;72.92
64937;SHT30;51452;47.698;19.050;2023-11-19T07:39:04;4.57;72.49
64937;SHT30;51452;47.698;19.050;2023-11-19T07:41:33;4.71;72.31
64937;SHT30;51452;47.698;19.050;2023-11-19T07:43:58;4.73;72.35
64937;SHT30;51452;47.698;19.050;2023-11-19T07:46:27;4.70;72.37
64937;SHT30;51452;47.698;19.050;2023-11-19T07:48:55;4.64;73.22
64937;SHT30;51452;47.698;19.050;2023-11-19T07:51:20;4.66;72.46
64937;SHT30;51452;47.698;19.050;2023-11-19T07:53:46;4.77;72.53
64937;SHT30;51452;47.698;19.050;2023-11-19T07:56:17;4.78;72.39
64937;SHT30;51452;47.698;19.050;2023-11-19T07:58:44;4.77;72.43
64937;SHT30;51452;47.698;19.050;2023-11-19T08:01:10;4.87;71.97
64937;SHT30;51452;47.698;19.050;2023-11-19T08:03:35;4.85;71.93
64937;SHT30;51452;47.698;19.050;2023-11-19T08:06:01;4.90;71.71
64937;SHT30;51452;47.698;19.050;2023-11-19T08:08:29;4.92;71.90
64937;SHT30;51452;47.698;19.050;2023-11-19T08:10:56;4.94;71.87
64937;SHT30;51452;47.698;19.050;2023-11-19T08:13:23;4.92;72.13
64937;SHT30;51452;47.698;19.050;2023-11-19T08:15:49;4.92;72.04
64937;SHT30;51452;47.698;19.050;2023-11-19T08:18:14;4.80;71.95
64937;SHT30;51452;47.698;19.050;2023-11-19T08:20:39;4.71;72.27
64937;SHT30;51452;47.698;19.050;2023-11-19T08:23:06;4.74;72.26
64937;SHT30;51452;47.698;19.050;2023-11-19T08:25:32;4.77;72.20
64937;SHT30;51452;47.698;19.050;2023-11-19T08:28:00;4.85;71.93
64937;SHT30;51452;47.698;19.050;2023-11-19T08:30:26;4.77;71.52
64937;SHT30;51452;47.698;19.050;2023-11-19T08:32:52;4.69;71.95
64937;SHT30;51452;47.698;19.050;2023-11-19T08:35:17;4.60;72.57
64937;SHT30;51452;47.698;19.050;2023-11-19T08:37:50;4.71;72.12
64937;SHT30;51452;47.698;19.050;2023-11-19T08:40:18;4.76;72.27
64937;SHT30;51452;47.698;19.050;2023-11-19T08:42:46;4.81;71.81
64937;SHT30;51452;47.698;19.050;2023-11-19T08:45:12;4.78;71.45
64937;SHT30;51452;47.698;19.050;2023-11-19T08:47:38;4.81;71.49
64937;SHT30;51452;47.698;19.050;2023-11-19T08:50:21;4.94;71.06
64937;SHT30;51452;47.698;19.050;2023-11-19T08:52:47;5.07;70.30
64937;SHT30;51452;47.698;19.050;2023-11-19T08:55:12;5.21;70.12
64937;SHT30;51452;47.698;19.050;2023-11-19T08:57:39;5.24;70.51
64937;SHT30;51452;47.698;19.050;2023-11-19T09:00:08;5.09;70.45
64937;SHT30;51452;47.698;19.050;2023-11-19T09:02:35;5.22;70.82
64937;SHT30;51452;47.698;19.050;2023-11-19T09:05:04;5.15;70.80
64937;SHT30;51452;47.698;19.050;2023-11-19T09:07:30;5.17;70.54
64937;SHT30;51452;47.698;19.050;2023-11-19T09:09:59;5.24;70.74
64937;SHT30;51452;47.698;19.050;2023-11-19T09:12:24;5.29;71.03
64937;SHT30;51452;47.698;19.050;2023-11-19T09:14:50;5.34;70.64
64937;SHT30;51452;47.698;19.050;2023-11-19T09:17:15;5.35;70.73
64937;SHT30;51452;47.698;19.050;2023-11-19T09:19:42;5.36;70.76
64937;SHT30;51452;47.698;19.050;2023-11-19T09:22:08;5.39;70.93
64937;SHT30;51452;47.698;19.050;2023-11-19T09:24:33;5.40;70.87
64937;SHT30;51452;47.698;19.050;2023-11-19T09:27:06;5.38;70.12
64937;SHT30;51452;47.698;19.050;2023-11-19T09:29:37;5.36;70.12
64937;SHT30;51452;47.698;19.050;2023-11-19T09:32:02;5.45;70.17
64937;SHT30;51452;47.698;19.050;2023-11-19T09:34:28;5.50;70.22
64937;SHT30;51452;47.698;19.050;2023-11-19T09:36:53;5.55;69.76
64937;SHT30;51452;47.698;19.050;2023-11-19T09:39:21;5.55;70.15
64937;SHT30;51452;47.698;19.050;2023-11-19T09:41:50;5.49;70.05
64937;SHT30;51452;47.698;19.050;2023-11-19T09:44:16;5.52;70.53
64937;SHT30;51452;47.698;19.050;2023-11-19T09:46:43;5.53;70.63
64937;SHT30;51452;47.698;19.050;2023-11-19T09:49:12;5.50;70.01
64937;SHT30;51452;47.698;19.050;2023-11-19T09:51:41;5.49;69.96
64937;SHT30;51452;47.698;19.050;2023-11-19T09:54:07;5.49;70.21
64937;SHT30;51452;47.698;19.050;2023-11-19T09:56:35;5.48;70.43
64937;SHT30;51452;47.698;19.050;2023-11-19T09:59:03;5.35;69.76
64937;SHT30;51452;47.698;19.050;2023-11-19T10:01:28;5.25;70.34
64937;SHT30;51452;47.698;19.050;2023-11-19T10:03:57;5.35;70.91
64937;SHT30;51452;47.698;19.050;2023-11-19T10:06:24;5.39;70.94
64937;SHT30;51452;47.698;19.050;2023-11-19T10:08:51;5.55;70.94
64937;SHT30;51452;47.698;19.050;2023-11-19T10:11:17;5.56;70.81
64937;SHT30;51452;47.698;19.050;2023-11-19T10:13:43;5.63;70.67
64937;SHT30;51452;47.698;19.050;2023-11-19T10:16:09;5.59;70.27
64937;SHT30;51452;47.698;19.050;2023-11-19T10:18:37;5.55;70.27
64937;SHT30;51452;47.698;19.050;2023-11-19T10:21:12;5.58;69.45
64937;SHT30;51452;47.698;19.050;2023-11-19T10:24:00;5.55;68.95
64937;SHT30;51452;47.698;19.050;2023-11-19T10:26:27;5.46;69.38
64937;SHT30;51452;47.698;19.050;2023-11-19T10:28:56;5.49;69.97
64937;SHT30;51452;47.698;19.050;2023-11-19T10:31:24;5.58;69.88
64937;SHT30;51452;47.698;19.050;2023-11-19T10:33:53;5.65;69.60
64937;SHT30;51452;47.698;19.050;2023-11-19T10:36:21;5.71;69.64
64937;SHT30;51452;47.698;19.050;2023-11-19T10:38:56;5.73;69.20
64937;SHT30;51452;47.698;19.050;2023-11-19T10:41:32;5.79;69.08
64937;SHT30;51452;47.698;19.050;2023-11-19T10:43:58;5.91;69.45
64937;SHT30;51452;47.698;19.050;2023-11-19T10:46:39;5.85;69.76
64937;SHT30;51452;47.698;19.050;2023-11-19T10:49:05;5.90;69.92
64937;SHT30;51452;47.698;19.050;2023-11-19T10:51:32;6.00;69.71
64937;SHT30;51452;47.698;19.050;2023-11-19T10:54:05;5.94;69.34
64937;SHT30;51452;47.698;19.050;2023-11-19T10:56:34;5.99;69.27
64937;SHT30;51452;47.698;19.050;2023-11-19T10:59:01;6.00;69.37
64937;SHT30;51452;47.698;19.050;2023-11-19T11:01:34;6.00;68.65
64937;SHT30;51452;47.698;19.050;2023-11-19T11:04:10;6.00;69.05
64937;SHT30;51452;47.698;19.050;2023-11-19T11:06:41;6.01;69.31
64937;SHT30;51452;47.698;19.050;2023-11-19T11:09:10;5.96;69.49
64937;SHT30;51452;47.698;19.050;2023-11-19T11:11:40;5.87;69.74
64937;SHT30;51452;47.698;19.050;2023-11-19T11:14:11;5.86;70.17
64937;SHT30;51452;47.698;19.050;2023-11-19T11:16:43;5.90;70.23
64937;SHT30;51452;47.698;19.050;2023-11-19T11:19:15;5.86;70.51
64937;SHT30;51452;47.698;19.050;2023-11-19T11:21:44;5.87;70.56
64937;SHT30;51452;47.698;19.050;2023-11-19T11:27:48;5.83;70.78
64937;SHT30;51452;47.698;19.050;2023-11-19T11:33:56;5.83;70.50
64937;SHT30;51452;47.698;19.050;2023-11-19T11:36:25;5.93;71.10
64937;SHT30;51452;47.698;19.050;2023-11-19T11:38:51;6.06;70.83
64937;SHT30;51452;47.698;19.050;2023-11-19T11:41:22;6.01;70.99
64937;SHT30;51452;47.698;19.050;2023-11-19T11:43:50;5.99;70.91
64937;SHT30;51452;47.698;19.050;2023-11-19T11:49:01;5.96;71.52
64937;SHT30;51452;47.698;19.050;2023-11-19T11:59:52;5.94;71.22
64937;SHT30;51452;47.698;19.050;2023-11-19T12:02:20;5.96;71.08
64937;SHT30;51452;47.698;19.050;2023-11-19T12:04:51;6.09;71.00
64937;SHT30;51452;47.698;19.050;2023-11-19T12:07:19;6.07;70.75
64937;SHT30;51452;47.698;19.050;2023-11-19T12:10:06;6.13;70.72
64937;SHT30;51452;47.698;19.050;2023-11-19T12:12:36;6.13;70.28
64937;SHT30;51452;47.698;19.050;2023-11-19T12:15:07;6.22;70.07
64937;SHT30;51452;47.698;19.050;2023-11-19T12:20:05;6.32;69.75
64937;SHT30;51452;47.698;19.050;2023-11-19T12:22:38;6.37;69.42
64937;SHT30;51452;47.698;19.050;2023-11-19T12:25:05;6.28;69.81
64937;SHT30;51452;47.698;19.050;2023-11-19T12:27:32;6.24;69.62
64937;SHT30;51452;47.698;19.050;2023-11-19T12:30:00;6.13;70.42
64937;SHT30;51452;47.698;19.050;2023-11-19T12:32:26;5.99;70.34
64937;SHT30;51452;47.698;19.050;2023-11-19T12:34:51;5.91;70.82
64937;SHT30;51452;47.698;19.050;2023-11-19T12:37:19;5.91;70.64
64937;SHT30;51452;47.698;19.050;2023-11-19T12:39:45;5.99;70.76
64937;SHT30;51452;47.698;19.050;2023-11-19T12:42:15;6.03;70.97
64937;SHT30;51452;47.698;19.050;2023-11-19T12:44:58;6.06;71.15
64937;SHT30;51452;47.698;19.050;2023-11-19T12:47:25;6.14;71.17
64937;SHT30;51452;47.698;19.050;2023-11-19T12:49:57;6.17;71.09
64937;SHT30;51452;47.698;19.050;2023-11-19T12:52:23;6.24;71.35
64937;SHT30;51452;47.698;19.050;2023-11-19T12:54:49;6.25;71.48
64937;SHT30;51452;47.698;19.050;2023-11-19T12:57:15;6.21;71.26
64937;SHT30;51452;47.698;19.050;2023-11-19T12:59:41;6.16;71.19
64937;SHT30;51452;47.698;19.050;2023-11-19T13:02:07;6.11;71.96
64937;SHT30;51452;47.698;19.050;2023-11-19T13:04:33;6.07;72.15
64937;SHT30;51452;47.698;19.050;2023-11-19T13:07:01;6.14;71.99
64937;SHT30;51452;47.698;19.050;2023-11-19T13:09:30;6.21;72.10
64937;SHT30;51452;47.698;19.050;2023-11-19T13:12:12;6.14;71.75
64937;SHT30;51452;47.698;19.050;2023-11-19T13:14:38;6.18;72.40
64937;SHT30;51452;47.698;19.050;2023-11-19T13:17:04;6.11;72.94
64937;SHT30;51452;47.698;19.050;2023-11-19T13:19:34;6.13;73.04
64937;SHT30;51452;47.698;19.050;2023-11-19T13:22:04;6.21;73.18
64937;SHT30;51452;47.698;19.050;2023-11-19T13:24:30;6.07;73.20
64937;SHT30;51452;47.698;19.050;2023-11-19T13:26:58;6.00;73.14
64937;SHT30;51452;47.698;19.050;2023-11-19T13:29:23;5.97;73.56
64937;SHT30;51452;47.698;19.050;2023-11-19T13:31:51;6.03;73.65
64937;SHT30;51452;47.698;19.050;2023-11-19T13:34:21;5.89;73.97
64937;SHT30;51452;47.698;19.050;2023-11-19T13:36:47;5.94;73.87
64937;SHT30;51452;47.698;19.050;2023-11-19T13:39:15;5.93;73.64
64937;SHT30;51452;47.698;19.050;2023-11-19T13:41:48;5.96;73.94
64937;SHT30;51452;47.698;19.050;2023-11-19T13:44:13;6.00;73.52
64937;SHT30;51452;47.698;19.050;2023-11-19T13:46:46;6.03;73.55
64937;SHT30;51452;47.698;19.050;2023-11-19T13:49:14;6.09;73.28
64937;SHT30;51452;47.698;19.050;2023-11-19T13:51:40;6.16;73.01
64937;SHT30;51452;47.698;19.050;2023-11-19T13:54:06;6.17;73.06
64937;SHT30;51452;47.698;19.050;2023-11-19T13:56:43;6.18;72.87
64937;SHT30;51452;47.698;19.050;2023-11-19T13:59:11;6.25;72.71
64937;SHT30;51452;47.698;19.050;2023-11-19T14:01:37;6.25;72.62
64937;SHT30;51452;47.698;19.050;2023-11-19T14:04:02;6.20;72.64
64937;SHT30;51452;47.698;19.050;2023-11-19T14:06:28;6.13;73.02
64937;SHT30;51452;47.698;19.050;2023-11-19T14:08:56;6.14;73.17
64937;SHT30;51452;47.698;19.050;2023-11-19T14:11:21;6.18;73.48
64937;SHT30;51452;47.698;19.050;2023-11-19T14:13:47;6.13;73.28
64937;SHT30;51452;47.698;19.050;2023-11-19T14:16:14;6.14;73.68
64937;SHT30;51452;47.698;19.050;2023-11-19T14:18:42;6.13;73.64
64937;SHT30;51452;47.698;19.050;2023-11-19T14:21:08;6.14;73.42
64937;SHT30;51452;47.698;19.050;2023-11-19T14:23:33;6.04;73.62
64937;SHT30;51452;47.698;19.050;2023-11-19T14:25:59;5.99;74.11
64937;SHT30;51452;47.698;19.050;2023-11-19T14:28:24;5.99;74.44
64937;SHT30;51452;47.698;19.050;2023-11-19T14:30:59;5.93;74.85
64937;SHT30;51452;47.698;19.050;2023-11-19T14:33:25;6.00;75.25
64937;SHT30;51452;47.698;19.050;2023-11-19T14:35:50;5.97;75.52
64937;SHT30;51452;47.698;19.050;2023-11-19T14:38:17;6.00;75.37
64937;SHT30;51452;47.698;19.050;2023-11-19T14:40:48;6.01;75.58
64937;SHT30;51452;47.698;19.050;2023-11-19T14:43:13;5.99;75.97
64937;SHT30;51452;47.698;19.050;2023-11-19T14:45:43;5.93;75.91
64937;SHT30;51452;47.698;19.050;2023-11-19T14:48:11;5.87;75.85
64937;SHT30;51452;47.698;19.050;2023-11-19T14:50:46;5.83;76.43
64937;SHT30;51452;47.698;19.050;2023-11-19T14:53:19;5.81;76.54
64937;SHT30;51452;47.698;19.050;2023-11-19T14:55:50;5.85;76.73
64937;SHT30;51452;47.698;19.050;2023-11-19T14:58:16;5.73;77.15
64937;SHT30;51452;47.698;19.050;2023-11-19T15:00:44;5.67;77.28
64937;SHT30;51452;47.698;19.050;2023-11-19T15:03:10;5.66;77.68
64937;SHT30;51452;47.698;19.050;2023-11-19T15:05:39;5.66;77.87
64937;SHT30;51452;47.698;19.050;2023-11-19T15:08:05;5.66;78.00
64937;SHT30;51452;47.698;19.050;2023-11-19T15:10:30;5.56;78.29
64937;SHT30;51452;47.698;19.050;2023-11-19T15:12:56;5.62;77.79
64937;SHT30;51452;47.698;19.050;2023-11-19T15:15:21;5.55;77.82
64937;SHT30;51452;47.698;19.050;2023-11-19T15:17:47;5.50;78.27
64937;SHT30;51452;47.698;19.050;2023-11-19T15:20:15;5.53;78.44
64937;SHT30;51452;47.698;19.050;2023-11-19T15:22:46;5.50;78.36
64937;SHT30;51452;47.698;19.050;2023-11-19T15:25:11;5.55;78.18
64937;SHT30;51452;47.698;19.050;2023-11-19T15:27:37;5.56;78.07
64937;SHT30;51452;47.698;19.050;2023-11-19T15:30:03;5.60;77.63
64937;SHT30;51452;47.698;19.050;2023-11-19T15:32:30;5.60;77.50
64937;SHT30;51452;47.698;19.050;2023-11-19T15:34:57;5.69;77.24
64937;SHT30;51452;47.698;19.050;2023-11-19T15:37:28;5.73;77.12
64937;SHT30;51452;47.698;19.050;2023-11-19T15:39:54;5.83;76.84
64937;SHT30;51452;47.698;19.050;2023-11-19T15:42:20;5.85;76.65
64937;SHT30;51452;47.698;19.050;2023-11-19T15:44:47;5.81;76.62
64937;SHT30;51452;47.698;19.050;2023-11-19T15:47:18;5.80;76.85
64937;SHT30;51452;47.698;19.050;2023-11-19T15:49:47;5.80;76.70
64937;SHT30;51452;47.698;19.050;2023-11-19T15:52:14;5.86;76.45
64937;SHT30;51452;47.698;19.050;2023-11-19T15:54:42;5.86;76.34
64937;SHT30;51452;47.698;19.050;2023-11-19T15:57:07;5.83;76.45